ENSB/LYR METAR and TAF weather

Enter ICAO airport designator
Station Type Date Time Source
ENSB METAR 2019/04/24 21:50 UTC NOAA

ENSB 242150Z 27010KT 9999 BKN024 00/M04 Q1024 RMK WIND 1400FT 24019KT


Station Type Date Time Source
ENSB Decoded METAR 2019/04/24 21:50 UTC NOAA

Svalbard Lufthavn, Norway (ENSB) 78-15N 015-28E 29M
Apr 24, 2019 - 05:50 PM EDT / 2019.04.24 2150 UTC
Wind: from the W (270 degrees) at 12 MPH (10 KT):0
Visibility: greater than 7 mile(s):0
Sky conditions: mostly cloudy
Temperature: 32 F (0 C)
Windchill: 23 F (-5 C):1
Dew Point: 24 F (-4 C)
Relative Humidity: 74%
Pressure (altimeter): 30.24 in. Hg (1024 hPa)
ob: ENSB 242150Z 27010KT 9999 BKN024 00/M04 Q1024 RMK WIND 1400FT 24019KT
cycle: 22

Station Type Date Time Source
ENSB TAF 2019/04/24 21:09 UTC NOAA

TAF
AMD TAF
AMD ENSB 242104Z 2421/2518 25012KT 9999 FEW015 BKN030
TEMPO 2421/2518 VRB05KT 2000 SN VV008

Example: see airport list